createdAt,value
2022-10-09T00:00:41.760Z,7.42
2022-10-09T00:03:08.432Z,7.53
2022-10-09T00:05:35.421Z,7.62
2022-10-09T00:08:02.261Z,7.69
2022-10-09T00:10:29.522Z,7.73
2022-10-09T00:12:56.571Z,7.75
2022-10-09T00:15:23.673Z,7.75
2022-10-09T00:17:50.397Z,7.78
2022-10-09T00:20:17.045Z,7.70
2022-10-09T00:22:43.672Z,7.63
2022-10-09T00:25:10.478Z,7.57
2022-10-09T00:27:37.116Z,7.56
2022-10-09T00:30:04.514Z,7.50
2022-10-09T00:32:31.166Z,7.47
2022-10-09T00:34:57.833Z,7.42
2022-10-09T00:37:24.462Z,7.39
2022-10-09T00:39:51.108Z,7.40
2022-10-09T00:42:17.747Z,7.39
2022-10-09T00:44:58.008Z,7.40
2022-10-09T00:47:42.922Z,7.39
2022-10-09T00:50:42.013Z,7.50
2022-10-09T00:53:12.667Z,7.51
2022-10-09T00:55:40.201Z,7.50
2022-10-09T00:58:07.027Z,7.49
2022-10-09T01:00:33.870Z,7.58
2022-10-09T01:03:00.691Z,7.58
2022-10-09T01:05:53.499Z,7.64
2022-10-09T01:08:29.035Z,7.68
2022-10-09T01:10:58.735Z,7.70
2022-10-09T01:13:53.307Z,7.71
2022-10-09T01:16:26.950Z,7.69
2022-10-09T01:19:15.228Z,7.64
2022-10-09T01:21:52.920Z,7.71
2022-10-09T01:24:28.517Z,7.71
2022-10-09T01:27:24.427Z,7.71
2022-10-09T01:30:00.724Z,7.69
2022-10-09T01:32:33.230Z,7.71
2022-10-09T01:35:01.648Z,7.73
2022-10-09T01:37:30.664Z,7.74
2022-10-09T01:39:58.487Z,7.71
2022-10-09T01:42:27.511Z,7.70
2022-10-09T01:44:54.173Z,7.68
2022-10-09T01:47:21.706Z,7.68
2022-10-09T01:49:51.434Z,7.72
2022-10-09T01:52:43.025Z,7.68
2022-10-09T01:55:31.870Z,7.59
2022-10-09T01:58:01.427Z,7.49
2022-10-09T02:00:33.451Z,7.30
2022-10-09T02:03:02.486Z,7.19
2022-10-09T02:05:30.893Z,7.17
2022-10-09T02:07:58.419Z,7.15
2022-10-09T02:10:26.127Z,7.06
2022-10-09T02:13:00.726Z,7.08
2022-10-09T02:15:54.221Z,7.11
2022-10-09T02:18:31.095Z,7.08
2022-10-09T02:21:04.761Z,7.05
2022-10-09T02:23:33.056Z,7.06
2022-10-09T02:25:59.730Z,7.04
2022-10-09T02:28:26.578Z,7.01
2022-10-09T02:31:04.616Z,7.08
2022-10-09T02:33:32.969Z,7.10
2022-10-09T02:36:00.149Z,7.11
2022-10-09T02:38:26.810Z,7.13
2022-10-09T02:40:57.547Z,7.10
2022-10-09T02:43:24.246Z,7.07
2022-10-09T02:45:50.899Z,7.04
2022-10-09T02:48:17.518Z,6.94
2022-10-09T02:50:44.167Z,6.83
2022-10-09T02:53:10.790Z,6.74
2022-10-09T02:55:37.775Z,6.78
2022-10-09T02:58:04.467Z,6.86
2022-10-09T03:00:31.182Z,6.97
2022-10-09T03:02:57.799Z,7.05
2022-10-09T03:05:24.469Z,7.08
2022-10-09T03:07:53.977Z,7.08
2022-10-09T03:10:20.852Z,7.12
2022-10-09T03:12:48.267Z,7.10
2022-10-09T03:15:15.275Z,7.08
2022-10-09T03:17:41.989Z,7.07
2022-10-09T03:20:09.275Z,7.09
2022-10-09T03:22:35.961Z,7.07
2022-10-09T03:25:02.700Z,7.06
2022-10-09T03:27:30.885Z,7.03
2022-10-09T03:29:58.655Z,7.04
2022-10-09T03:32:25.705Z,7.07
2022-10-09T03:34:52.435Z,7.10
2022-10-09T03:37:19.063Z,7.09
2022-10-09T03:39:46.238Z,7.06
2022-10-09T03:42:12.979Z,7.03
2022-10-09T03:44:39.627Z,7.01
2022-10-09T03:47:06.275Z,6.93
2022-10-09T03:49:32.988Z,6.96
2022-10-09T03:51:59.637Z,6.98
2022-10-09T03:54:26.770Z,6.96
2022-10-09T03:56:53.408Z,6.96
2022-10-09T03:59:20.082Z,6.97
2022-10-09T04:01:46.754Z,6.99
2022-10-09T04:04:13.382Z,7.02
2022-10-09T04:06:40.046Z,7.02
2022-10-09T04:09:06.820Z,7.01
2022-10-09T04:11:33.570Z,6.98
2022-10-09T04:14:00.710Z,7.01
2022-10-09T04:16:27.439Z,6.98
2022-10-09T04:18:54.132Z,6.97
2022-10-09T04:21:20.774Z,6.98
2022-10-09T04:23:47.392Z,6.95
2022-10-09T04:26:14.096Z,6.93
2022-10-09T04:28:40.838Z,6.95
2022-10-09T04:31:07.701Z,6.94
2022-10-09T04:33:34.657Z,6.86
2022-10-09T04:36:01.390Z,6.76
2022-10-09T04:38:28.338Z,6.62
2022-10-09T04:40:59.926Z,6.56
2022-10-09T04:43:27.529Z,6.48
2022-10-09T04:45:54.782Z,6.50
2022-10-09T04:48:21.662Z,6.53
2022-10-09T04:50:48.515Z,6.62
2022-10-09T04:53:15.685Z,6.66
2022-10-09T04:55:43.430Z,6.68
2022-10-09T04:58:11.694Z,6.72
2022-10-09T05:00:43.381Z,6.69
2022-10-09T05:03:10.447Z,6.63
2022-10-09T05:05:37.196Z,6.63
2022-10-09T05:08:03.906Z,6.63
2022-10-09T05:10:34.199Z,6.60
2022-10-09T05:13:01.284Z,6.60
2022-10-09T05:15:27.995Z,6.58
2022-10-09T05:17:54.627Z,6.60
2022-10-09T05:20:21.374Z,6.58
2022-10-09T05:22:48.342Z,6.60
2022-10-09T05:25:15.451Z,6.56
2022-10-09T05:27:42.072Z,6.55
2022-10-09T05:30:09.514Z,6.50
2022-10-09T05:32:36.652Z,6.45
2022-10-09T05:35:04.443Z,6.44
2022-10-09T05:37:31.201Z,6.41
2022-10-09T05:39:57.932Z,6.46
2022-10-09T05:42:24.647Z,6.49
2022-10-09T05:44:51.464Z,6.53
2022-10-09T05:47:19.717Z,6.53
2022-10-09T05:49:46.743Z,6.54
2022-10-09T05:52:13.425Z,6.60
2022-10-09T05:54:41.882Z,6.63
2022-10-09T05:57:09.738Z,6.67
2022-10-09T05:59:36.404Z,6.71
2022-10-09T06:02:03.778Z,6.78
2022-10-09T06:04:30.642Z,6.79
2022-10-09T06:06:57.460Z,6.89
2022-10-09T06:09:25.584Z,6.97
2022-10-09T06:11:53.934Z,6.94
2022-10-09T06:14:22.298Z,6.97
2022-10-09T06:16:50.131Z,6.95
2022-10-09T06:19:19.304Z,6.95
2022-10-09T06:21:47.164Z,6.96
2022-10-09T06:24:28.688Z,6.89
2022-10-09T06:26:56.565Z,6.95
2022-10-09T06:29:23.264Z,7.01
2022-10-09T06:31:49.864Z,7.22
2022-10-09T06:34:16.753Z,7.29
2022-10-09T06:36:43.442Z,7.30
2022-10-09T06:39:10.848Z,7.43
2022-10-09T06:41:37.627Z,7.58
2022-10-09T06:44:22.536Z,7.58
2022-10-09T06:46:49.711Z,7.70
2022-10-09T06:49:16.649Z,7.83
2022-10-09T06:51:43.289Z,7.90
2022-10-09T06:54:13.332Z,8.20
2022-10-09T06:56:40.438Z,8.26
2022-10-09T06:59:08.084Z,8.34
2022-10-09T07:01:35.327Z,8.32
2022-10-09T07:04:07.380Z,8.19
2022-10-09T07:06:38.158Z,8.30
2022-10-09T07:09:07.363Z,8.69
2022-10-09T07:11:36.612Z,9.07
2022-10-09T07:14:05.508Z,9.20
2022-10-09T07:16:41.030Z,9.18
2022-10-09T07:19:11.222Z,9.16
2022-10-09T07:21:40.118Z,9.31
2022-10-09T07:24:07.583Z,9.70
2022-10-09T07:26:37.376Z,9.87
2022-10-09T07:29:05.940Z,9.87
2022-10-09T07:31:32.677Z,10.18
2022-10-09T07:33:59.581Z,10.05
2022-10-09T07:36:26.853Z,9.92
2022-10-09T07:38:55.843Z,10.07
2022-10-09T07:41:25.390Z,10.21
2022-10-09T07:43:52.082Z,10.28
2022-10-09T07:46:21.479Z,10.17
2022-10-09T07:48:48.763Z,9.92
2022-10-09T07:51:16.809Z,10.05
2022-10-09T07:53:44.855Z,10.12
2022-10-09T07:56:26.800Z,10.12
2022-10-09T07:58:56.065Z,9.92
2022-10-09T08:01:23.930Z,9.81
2022-10-09T08:03:50.965Z,10.22
2022-10-09T08:06:18.744Z,10.45
2022-10-09T08:08:49.315Z,10.39
2022-10-09T08:11:18.410Z,10.32
2022-10-09T08:13:46.342Z,10.54
2022-10-09T08:16:13.759Z,10.72
2022-10-09T08:18:40.899Z,10.47
2022-10-09T08:21:18.866Z,10.65
2022-10-09T08:23:45.868Z,10.32
2022-10-09T08:26:14.860Z,10.52
2022-10-09T08:28:41.999Z,10.86
2022-10-09T08:31:14.252Z,10.67
2022-10-09T08:33:41.240Z,10.77
2022-10-09T08:36:10.001Z,10.61
2022-10-09T08:38:47.151Z,10.71
2022-10-09T08:41:32.833Z,11.12
2022-10-09T08:44:13.273Z,11.32
2022-10-09T08:46:52.820Z,11.23
2022-10-09T08:49:33.191Z,11.40
2022-10-09T08:52:11.238Z,11.44
2022-10-09T08:54:39.682Z,11.52
2022-10-09T08:57:13.347Z,11.12
2022-10-09T08:59:40.087Z,11.03
2022-10-09T09:02:22.181Z,10.93
2022-10-09T09:04:58.185Z,11.37
2022-10-09T09:07:28.911Z,11.63
2022-10-09T09:10:20.309Z,11.98
2022-10-09T09:13:18.459Z,12.14
2022-10-09T09:15:58.437Z,11.77
2022-10-09T09:18:31.178Z,11.63
2022-10-09T09:21:11.963Z,11.76
2022-10-09T09:23:46.969Z,12.15
2022-10-09T09:26:17.455Z,12.04
2022-10-09T09:28:44.831Z,11.83
2022-10-09T09:31:22.920Z,11.86
2022-10-09T09:34:04.477Z,12.10
2022-10-09T09:36:52.010Z,12.31
2022-10-09T09:42:19.582Z,12.70
2022-10-09T09:45:08.258Z,13.36
2022-10-09T09:47:41.848Z,13.44
2022-10-09T09:50:23.372Z,13.40
2022-10-09T09:52:56.684Z,12.86
2022-10-09T09:55:30.247Z,12.93
2022-10-09T09:58:09.144Z,12.67
2022-10-09T10:00:36.145Z,12.74
2022-10-09T10:03:16.791Z,13.49
2022-10-09T10:05:45.066Z,13.49
2022-10-09T10:08:24.264Z,13.24
2022-10-09T10:10:54.046Z,13.12
2022-10-09T10:13:43.143Z,13.26
2022-10-09T10:16:12.347Z,13.45
2022-10-09T10:18:42.402Z,13.08
2022-10-09T10:21:18.275Z,12.90
2022-10-09T10:26:41.535Z,12.94
2022-10-09T10:29:14.310Z,13.12
2022-10-09T10:32:02.773Z,13.12
2022-10-09T10:34:48.691Z,12.76
2022-10-09T10:37:15.277Z,12.71
2022-10-09T10:39:49.210Z,12.47
2022-10-09T10:42:24.143Z,12.58
2022-10-09T10:45:05.751Z,12.97
2022-10-09T10:47:40.020Z,13.15
2022-10-09T10:50:13.670Z,13.41
2022-10-09T10:53:08.700Z,13.23
2022-10-09T10:55:50.820Z,13.50
2022-10-09T10:58:31.228Z,13.46
2022-10-09T11:01:21.194Z,13.64
2022-10-09T11:04:21.324Z,13.76
2022-10-09T11:07:09.043Z,13.75
2022-10-09T11:09:38.821Z,13.59
2022-10-09T11:12:24.739Z,13.76
2022-10-09T11:15:21.325Z,14.02
2022-10-09T11:17:57.046Z,13.96
2022-10-09T11:20:57.936Z,14.04
2022-10-09T11:23:46.045Z,13.88
2022-10-09T11:26:30.950Z,13.94
2022-10-09T11:29:02.806Z,13.81
2022-10-09T11:31:46.548Z,14.06
2022-10-09T11:34:21.420Z,14.25
2022-10-09T11:36:48.100Z,13.96
2022-10-09T11:39:18.829Z,13.43
2022-10-09T11:41:47.809Z,13.47
2022-10-09T11:44:29.648Z,13.57
2022-10-09T11:47:28.138Z,13.54
2022-10-09T11:50:14.453Z,13.45
2022-10-09T11:52:50.319Z,13.33
2022-10-09T11:55:27.390Z,13.38
2022-10-09T11:57:54.120Z,13.48
2022-10-09T12:00:33.028Z,13.70
2022-10-09T12:03:03.387Z,13.88
2022-10-09T12:05:42.133Z,13.92
2022-10-09T12:08:19.552Z,13.54
2022-10-09T12:10:59.987Z,13.52
2022-10-09T12:13:45.219Z,13.63
2022-10-09T12:16:31.673Z,13.97
2022-10-09T12:19:01.790Z,13.63
2022-10-09T12:21:35.487Z,13.50
2022-10-09T12:24:02.586Z,13.40
2022-10-09T12:26:30.188Z,13.44
2022-10-09T12:29:01.291Z,13.60
2022-10-09T12:31:32.163Z,13.66
2022-10-09T12:34:22.874Z,13.60
2022-10-09T12:36:49.511Z,13.65
2022-10-09T12:39:21.926Z,13.69
2022-10-09T12:41:52.314Z,13.61
2022-10-09T12:44:33.956Z,13.59
2022-10-09T12:47:15.424Z,13.59
2022-10-09T12:49:42.076Z,13.50
2022-10-09T12:52:16.429Z,13.59
2022-10-09T12:54:44.941Z,13.40
2022-10-09T12:57:15.798Z,13.24
2022-10-09T12:59:44.317Z,13.29
2022-10-09T13:02:13.047Z,13.32
2022-10-09T13:04:39.886Z,13.57
2022-10-09T13:07:16.677Z,13.80
2022-10-09T13:09:43.463Z,13.77
2022-10-09T13:12:35.583Z,13.64
2022-10-09T13:15:07.699Z,13.64
2022-10-09T13:17:35.803Z,13.70
2022-10-09T13:20:27.212Z,13.81
2022-10-09T13:22:58.194Z,13.91
2022-10-09T13:25:32.377Z,13.99
2022-10-09T13:27:59.132Z,13.61
2022-10-09T13:30:27.146Z,13.50
2022-10-09T13:32:54.134Z,13.24
2022-10-09T13:35:21.211Z,13.28
2022-10-09T13:37:48.701Z,13.27
2022-10-09T13:40:19.750Z,13.33
2022-10-09T13:42:52.439Z,13.41
2022-10-09T13:45:19.240Z,13.43
2022-10-09T13:47:45.972Z,13.49
2022-10-09T13:50:17.809Z,13.35
2022-10-09T13:52:44.464Z,13.42
2022-10-09T13:55:11.843Z,13.31
2022-10-09T13:57:38.593Z,13.46
2022-10-09T14:00:06.989Z,13.43
2022-10-09T14:02:38.773Z,13.29
2022-10-09T14:05:05.939Z,13.21
2022-10-09T14:07:32.630Z,13.25
2022-10-09T14:09:59.266Z,13.35
2022-10-09T14:12:26.121Z,13.25
2022-10-09T14:14:54.249Z,13.10
2022-10-09T14:17:20.895Z,12.97
2022-10-09T14:19:48.273Z,12.87
2022-10-09T14:22:15.622Z,12.88
2022-10-09T14:24:42.679Z,13.01
2022-10-09T14:27:09.402Z,13.05
2022-10-09T14:29:37.490Z,13.00
2022-10-09T14:32:05.063Z,12.97
2022-10-09T14:34:31.751Z,12.97
2022-10-09T14:36:58.538Z,12.96
2022-10-09T14:39:25.219Z,12.92
2022-10-09T14:41:52.025Z,12.85
2022-10-09T14:44:18.666Z,12.89
2022-10-09T14:46:45.271Z,12.89
2022-10-09T14:49:12.307Z,12.80
2022-10-09T14:51:40.303Z,12.65
2022-10-09T14:54:08.173Z,12.68
2022-10-09T14:56:35.678Z,12.61
2022-10-09T14:59:02.634Z,12.48
2022-10-09T15:01:29.643Z,12.49
2022-10-09T15:03:56.849Z,12.43
2022-10-09T15:06:27.745Z,12.41
2022-10-09T15:09:03.089Z,12.41
2022-10-09T15:11:33.177Z,12.40
2022-10-09T15:13:59.853Z,12.39
2022-10-09T15:16:26.632Z,12.30
2022-10-09T15:18:54.860Z,12.34
2022-10-09T15:21:24.552Z,12.22
2022-10-09T15:23:54.905Z,12.12
2022-10-09T15:26:21.816Z,12.06
2022-10-09T15:28:48.596Z,12.00
2022-10-09T15:31:31.920Z,12.03
2022-10-09T15:34:01.128Z,11.99
2022-10-09T15:36:28.867Z,12.06
2022-10-09T15:38:55.647Z,12.02
2022-10-09T15:41:27.980Z,11.98
2022-10-09T15:43:57.166Z,11.89
2022-10-09T15:46:24.238Z,11.80
2022-10-09T15:48:51.464Z,11.67
2022-10-09T15:51:18.866Z,11.59
2022-10-09T15:53:49.075Z,11.54
2022-10-09T15:56:22.376Z,11.63
2022-10-09T15:58:50.050Z,11.62
2022-10-09T16:01:17.551Z,11.66
2022-10-09T16:03:44.927Z,11.64
2022-10-09T16:06:15.017Z,11.58
2022-10-09T16:08:42.376Z,11.43
2022-10-09T16:11:11.979Z,11.41
2022-10-09T16:13:41.582Z,11.43
2022-10-09T16:16:11.626Z,11.43
2022-10-09T16:18:38.303Z,11.40
2022-10-09T16:21:10.360Z,11.39
2022-10-09T16:23:37.163Z,11.28
2022-10-09T16:26:04.604Z,11.17
2022-10-09T16:28:32.415Z,11.14
2022-10-09T16:30:59.364Z,11.12
2022-10-09T16:33:26.134Z,11.04
2022-10-09T16:35:52.811Z,10.97
2022-10-09T16:38:19.790Z,10.93
2022-10-09T16:41:01.290Z,10.94
2022-10-09T16:43:28.334Z,10.87
2022-10-09T16:45:55.010Z,10.92
2022-10-09T16:48:21.656Z,10.92
2022-10-09T16:50:48.267Z,10.91
2022-10-09T16:53:14.926Z,10.90
2022-10-09T16:55:41.565Z,10.85
2022-10-09T16:58:08.236Z,10.80
2022-10-09T17:00:34.927Z,10.80
2022-10-09T17:03:01.563Z,10.80
2022-10-09T17:05:28.221Z,10.75
2022-10-09T17:07:54.866Z,10.70
2022-10-09T17:10:21.608Z,10.66
2022-10-09T17:12:48.268Z,10.68
2022-10-09T17:15:14.955Z,10.65
2022-10-09T17:17:41.659Z,10.67
2022-10-09T17:20:08.795Z,10.65
2022-10-09T17:22:35.423Z,10.68
2022-10-09T17:25:02.376Z,10.68
2022-10-09T17:27:29.036Z,10.63
2022-10-09T17:29:55.747Z,10.61
2022-10-09T17:32:22.773Z,10.60
2022-10-09T17:34:50.896Z,10.60
2022-10-09T17:37:17.571Z,10.55
2022-10-09T17:39:47.456Z,10.48
2022-10-09T17:42:16.532Z,10.44
2022-10-09T17:44:43.153Z,10.41
2022-10-09T17:47:09.868Z,10.38
2022-10-09T17:49:36.559Z,10.37
2022-10-09T17:52:03.651Z,10.39
2022-10-09T17:54:30.296Z,10.36
2022-10-09T17:57:00.191Z,10.30
2022-10-09T17:59:27.270Z,10.24
2022-10-09T18:01:53.906Z,10.22
2022-10-09T18:04:20.640Z,10.20
2022-10-09T18:06:47.306Z,10.15
2022-10-09T18:09:14.111Z,10.16
2022-10-09T18:11:40.888Z,10.13
2022-10-09T18:14:07.618Z,10.15
2022-10-09T18:16:37.821Z,10.09
2022-10-09T18:19:09.650Z,10.09
2022-10-09T18:21:36.554Z,10.06
2022-10-09T18:24:03.354Z,10.01
2022-10-09T18:26:30.029Z,9.99
2022-10-09T18:28:58.679Z,9.95
2022-10-09T18:31:25.550Z,9.96
2022-10-09T18:33:52.746Z,9.94
2022-10-09T18:36:23.183Z,9.95
2022-10-09T18:38:54.822Z,9.88
2022-10-09T18:41:22.947Z,9.85
2022-10-09T18:43:50.835Z,9.90
2022-10-09T18:46:24.156Z,9.92
2022-10-09T18:48:52.139Z,9.88
2022-10-09T18:51:21.602Z,9.87
2022-10-09T18:53:52.144Z,9.84
2022-10-09T18:56:20.759Z,9.79
2022-10-09T18:58:49.707Z,9.77
2022-10-09T19:01:16.443Z,9.72
2022-10-09T19:03:46.028Z,9.68
2022-10-09T19:06:16.038Z,9.66
2022-10-09T19:08:43.666Z,9.63
2022-10-09T19:11:10.407Z,9.66
2022-10-09T19:13:37.058Z,9.62
2022-10-09T19:16:05.675Z,9.57
2022-10-09T19:18:35.030Z,9.52
2022-10-09T19:21:02.929Z,9.53
2022-10-09T19:23:29.910Z,9.51
2022-10-09T19:25:58.348Z,9.50
2022-10-09T19:28:27.910Z,9.48
2022-10-09T19:30:54.605Z,9.45
2022-10-09T19:33:21.494Z,9.44
2022-10-09T19:35:53.906Z,9.47
2022-10-09T19:38:21.403Z,9.48
2022-10-09T19:40:49.229Z,9.50
2022-10-09T19:43:17.517Z,9.55
2022-10-09T19:45:44.734Z,9.58
2022-10-09T19:48:11.423Z,9.61
2022-10-09T19:50:43.090Z,9.59
2022-10-09T19:53:11.763Z,9.57
2022-10-09T19:55:38.791Z,9.54
2022-10-09T19:58:06.714Z,9.50
2022-10-09T20:00:33.477Z,9.50
2022-10-09T20:03:00.183Z,9.50
2022-10-09T20:05:26.932Z,9.50
2022-10-09T20:07:53.562Z,9.52
2022-10-09T20:10:20.195Z,9.49
2022-10-09T20:12:47.067Z,9.37
2022-10-09T20:15:14.433Z,9.46
2022-10-09T20:17:41.259Z,9.45
2022-10-09T20:20:09.405Z,9.45
2022-10-09T20:22:37.793Z,9.42
2022-10-09T20:25:05.426Z,9.38
2022-10-09T20:27:32.747Z,9.27
2022-10-09T20:29:59.518Z,9.28
2022-10-09T20:32:26.522Z,9.25
2022-10-09T20:34:53.930Z,9.24
2022-10-09T20:37:21.135Z,9.24
2022-10-09T20:39:49.127Z,9.21
2022-10-09T20:42:16.039Z,9.23
2022-10-09T20:44:44.343Z,9.18
2022-10-09T20:47:11.077Z,9.16
2022-10-09T20:49:37.918Z,9.15
2022-10-09T20:52:06.213Z,9.15
2022-10-09T20:54:34.708Z,9.02
2022-10-09T20:57:01.660Z,9.06
2022-10-09T20:59:28.311Z,9.06
2022-10-09T21:01:54.992Z,9.06
2022-10-09T21:04:21.706Z,9.03
2022-10-09T21:06:48.437Z,8.98
2022-10-09T21:09:15.198Z,8.99
2022-10-09T21:11:43.839Z,8.90
2022-10-09T21:14:10.866Z,8.98
2022-10-09T21:16:38.416Z,8.91
2022-10-09T21:19:07.777Z,8.87
2022-10-09T21:21:34.628Z,8.84
2022-10-09T21:24:01.723Z,8.89
2022-10-09T21:26:30.486Z,8.84
2022-10-09T21:29:00.017Z,8.78
2022-10-09T21:31:28.859Z,8.86
2022-10-09T21:33:56.397Z,8.88
2022-10-09T21:36:37.417Z,8.92
2022-10-09T21:39:06.394Z,8.94
2022-10-09T21:41:34.269Z,8.96
2022-10-09T21:44:01.638Z,8.92
2022-10-09T21:46:28.642Z,8.93
2022-10-09T21:48:55.845Z,8.90
2022-10-09T21:51:23.057Z,8.94
2022-10-09T21:53:50.916Z,8.92
2022-10-09T21:56:18.475Z,8.90
2022-10-09T21:58:49.074Z,8.92
2022-10-09T22:01:16.584Z,8.92
2022-10-09T22:03:43.911Z,8.91
2022-10-09T22:06:17.787Z,8.88
2022-10-09T22:08:45.952Z,8.87
2022-10-09T22:11:12.915Z,8.83
2022-10-09T22:13:39.765Z,8.81
2022-10-09T22:16:11.946Z,8.85
2022-10-09T22:18:38.491Z,8.80
2022-10-09T22:21:11.854Z,8.74
2022-10-09T22:23:38.959Z,8.72
2022-10-09T22:26:13.808Z,8.69
2022-10-09T22:28:40.855Z,8.55
2022-10-09T22:31:20.434Z,8.67
2022-10-09T22:34:05.317Z,8.69
2022-10-09T22:36:34.131Z,8.72
2022-10-09T22:39:04.583Z,8.87
2022-10-09T22:41:31.861Z,8.82
2022-10-09T22:44:00.774Z,8.73
2022-10-09T22:46:35.528Z,8.76
2022-10-09T22:49:04.977Z,8.76
2022-10-09T22:51:31.741Z,8.71
2022-10-09T22:53:59.713Z,8.77
2022-10-09T22:56:38.397Z,8.79
2022-10-09T22:59:06.507Z,8.78
2022-10-09T23:01:55.129Z,8.78
2022-10-09T23:04:23.161Z,8.81
2022-10-09T23:06:55.197Z,8.78
2022-10-09T23:09:23.578Z,8.78
2022-10-09T23:11:50.523Z,8.81
2022-10-09T23:14:17.951Z,8.83
2022-10-09T23:16:44.687Z,8.86
2022-10-09T23:19:11.398Z,8.92
2022-10-09T23:21:40.247Z,8.97
2022-10-09T23:24:08.163Z,9.00
2022-10-09T23:26:36.995Z,9.04
2022-10-09T23:29:09.233Z,8.98
2022-10-09T23:31:37.157Z,9.08
2022-10-09T23:34:05.781Z,9.07
2022-10-09T23:36:32.571Z,9.12
2022-10-09T23:39:01.031Z,9.09
2022-10-09T23:41:29.222Z,9.11
2022-10-09T23:43:56.156Z,9.10
2022-10-09T23:46:25.368Z,9.13
2022-10-09T23:48:52.784Z,9.18
2022-10-09T23:51:20.926Z,9.20
2022-10-09T23:53:48.052Z,9.23
2022-10-09T23:56:16.193Z,9.34
2022-10-09T23:58:42.846Z,9.38
